Time;durP1;ratioP1;P1;durP2;ratioP2;P2;SDS_P1;SDS_P2;PMS_P1;PMS_P2;Temp;Humidity;BMP_temperature;BMP_pressure;BME280_temperature;BME280_humidity;BME280_pressure;Samples;Min_cycle;Max_cycle;Signal;HPM_P1;HPM_P2
2023/10/14 00:00:27;;;;;;;10.20;9.70;;;;;;;;;;5070348;28;20499;-61
2023/10/14 00:02:53;;;;;;;10.13;9.63;;;;;;;;;;5070226;28;20374;-61
2023/10/14 00:05:21;;;;;;;10.30;9.80;;;;;;;;;;5077368;28;20111;-61
2023/10/14 00:07:46;;;;;;;9.60;9.20;;;;;;;;;;5067889;28;20060;-62
2023/10/14 00:10:13;;;;;;;9.90;9.50;;;;;;;;;;5064160;28;20064;-61
2023/10/14 00:12:39;;;;;;;10.25;9.75;;;;;;;;;;5067952;28;20131;-61
2023/10/14 00:15:05;;;;;;;10.35;9.85;;;;;;;;;;5068995;28;20031;-62
2023/10/14 00:17:41;;;;;;;9.70;9.30;;;;;;;;;;5070393;28;20087;-61
2023/10/14 00:20:10;;;;;;;10.20;9.70;;;;;;;;;;5074365;28;20056;-62
2023/10/14 00:22:39;;;;;;;10.43;9.93;;;;;;;;;;5075572;28;20444;-61
2023/10/14 00:25:09;;;;;;;10.20;9.73;;;;;;;;;;5070463;28;20484;-59
2023/10/14 00:27:35;;;;;;;9.90;9.50;;;;;;;;;;5071387;28;20024;-61
2023/10/14 00:30:09;;;;;;;9.85;9.45;;;;;;;;;;5070269;28;20062;-61
2023/10/14 00:32:35;;;;;;;9.73;9.32;;;;;;;;;;5068989;28;20379;-61
2023/10/14 00:35:03;;;;;;;9.77;9.38;;;;;;;;;;5076288;28;20032;-61
2023/10/14 00:37:33;;;;;;;9.88;9.48;;;;;;;;;;5069953;28;20039;-61
2023/10/14 00:40:10;;;;;;;9.70;9.30;;;;;;;;;;5070007;28;20013;-61
2023/10/14 00:42:36;;;;;;;9.85;9.45;;;;;;;;;;5067481;28;20477;-61
2023/10/14 00:45:02;;;;;;;9.80;9.40;;;;;;;;;;5064855;28;20032;-61
2023/10/14 00:47:27;;;;;;;9.90;9.50;;;;;;;;;;5070105;28;20031;-61
2023/10/14 00:49:55;;;;;;;10.00;9.57;;;;;;;;;;5080121;28;20028;-62
2023/10/14 00:52:22;;;;;;;10.30;9.80;;;;;;;;;;5073139;28;20020;-61
2023/10/14 00:59:48;;;;;;;10.30;9.80;;;;;;;;;;5074674;28;20020;-62
2023/10/14 01:02:14;;;;;;;10.18;9.68;;;;;;;;;;5075267;28;20021;-61
2023/10/14 01:04:42;;;;;;;9.90;9.50;;;;;;;;;;5071691;28;20028;-61
2023/10/14 01:07:13;;;;;;;9.70;9.30;;;;;;;;;;5065772;28;20463;-62
2023/10/14 01:12:16;;;;;;;10.00;9.60;;;;;;;;;;5063144;28;20131;-61
2023/10/14 01:14:45;;;;;;;9.60;9.20;;;;;;;;;;5054504;28;20024;-60
2023/10/14 01:17:18;;;;;;;9.93;9.52;;;;;;;;;;5064260;28;20022;-62
2023/10/14 01:19:44;;;;;;;9.57;9.18;;;;;;;;;;5055590;28;20040;-60
2023/10/14 01:22:12;;;;;;;10.20;9.70;;;;;;;;;;5065994;28;20017;-62
2023/10/14 01:24:39;;;;;;;9.93;9.52;;;;;;;;;;5066200;28;20055;-59
2023/10/14 01:27:06;;;;;;;9.77;9.38;;;;;;;;;;5062421;28;20033;-62
2023/10/14 01:29:38;;;;;;;10.00;9.60;;;;;;;;;;5070439;28;20485;-61
2023/10/14 01:32:07;;;;;;;10.25;9.77;;;;;;;;;;5076072;28;20031;-62
2023/10/14 01:34:42;;;;;;;9.95;9.55;;;;;;;;;;5069126;28;20021;-62
2023/10/14 01:37:14;;;;;;;10.07;9.60;;;;;;;;;;5068120;28;20044;-60
2023/10/14 01:39:46;;;;;;;9.90;9.50;;;;;;;;;;5066263;28;20021;-61
2023/10/14 01:42:11;;;;;;;10.02;9.55;;;;;;;;;;5078185;28;20021;-61
2023/10/14 01:44:37;;;;;;;9.80;9.40;;;;;;;;;;5072992;28;20031;-61
2023/10/14 01:47:02;;;;;;;10.50;10.00;;;;;;;;;;5072778;28;20077;-62
2023/10/14 01:49:28;;;;;;;9.90;9.50;;;;;;;;;;5076569;28;20021;-61
2023/10/14 01:51:56;;;;;;;9.88;9.48;;;;;;;;;;5065568;28;20028;-62
2023/10/14 01:54:22;;;;;;;9.68;9.27;;;;;;;;;;5073711;28;20357;-62
2023/10/14 01:56:51;;;;;;;10.50;10.00;;;;;;;;;;5071524;28;20025;-60
2023/10/14 01:59:16;;;;;;;10.15;9.68;;;;;;;;;;5058903;28;20078;-61
2023/10/14 02:01:42;;;;;;;9.88;9.48;;;;;;;;;;5067279;28;20099;-61
2023/10/14 02:04:07;;;;;;;10.60;10.10;;;;;;;;;;5063042;28;20031;-61
2023/10/14 02:06:32;;;;;;;10.13;9.68;;;;;;;;;;5061195;28;20020;-61
2023/10/14 02:08:59;;;;;;;10.70;10.20;;;;;;;;;;5073087;28;20025;-60
2023/10/14 02:11:35;;;;;;;10.20;9.70;;;;;;;;;;5067710;28;20119;-60
2023/10/14 02:14:07;;;;;;;9.82;9.43;;;;;;;;;;5070877;28;20053;-61
2023/10/14 02:16:42;;;;;;;9.90;9.50;;;;;;;;;;5074555;28;20020;-60
2023/10/14 02:21:57;;;;;;;9.60;9.20;;;;;;;;;;5073926;28;20019;-61
2023/10/14 02:24:23;;;;;;;9.60;9.20;;;;;;;;;;5067458;28;20044;-61
2023/10/14 02:26:48;;;;;;;9.77;9.38;;;;;;;;;;5067489;28;20559;-60
2023/10/14 02:29:15;;;;;;;10.30;9.80;;;;;;;;;;5065240;28;20020;-62
2023/10/14 02:31:43;;;;;;;10.60;10.10;;;;;;;;;;5062895;28;20045;-61
2023/10/14 02:34:09;;;;;;;10.60;10.10;;;;;;;;;;5055291;28;20025;-63
2023/10/14 02:36:48;;;;;;;9.80;9.40;;;;;;;;;;5057004;28;20025;-60
2023/10/14 02:39:16;;;;;;;9.80;9.40;;;;;;;;;;5063835;28;20021;-61
2023/10/14 02:41:58;;;;;;;10.20;9.70;;;;;;;;;;5074814;28;20024;-62
2023/10/14 02:44:28;;;;;;;9.90;9.50;;;;;;;;;;5067678;28;20020;-60
2023/10/14 02:46:54;;;;;;;9.98;9.57;;;;;;;;;;5063440;28;20067;-62
2023/10/14 02:49:24;;;;;;;9.48;9.07;;;;;;;;;;5073470;28;20488;-61
2023/10/14 02:51:52;;;;;;;9.98;9.57;;;;;;;;;;5071149;28;20036;-60
2023/10/14 02:54:26;;;;;;;9.70;9.30;;;;;;;;;;5054608;28;20032;-60
2023/10/14 02:56:59;;;;;;;10.15;9.68;;;;;;;;;;5053433;28;20021;-61
2023/10/14 03:02:16;;;;;;;9.93;9.52;;;;;;;;;;5066823;28;20023;-61
2023/10/14 03:07:27;;;;;;;10.65;10.15;;;;;;;;;;5066799;28;20032;-62
2023/10/14 03:09:52;;;;;;;;;;;;;;;;;;5068972;28;20025;-61
2023/10/14 03:12:23;;;;;;;9.90;9.50;;;;;;;;;;5065386;28;20282;-62
2023/10/14 03:14:49;;;;;;;9.55;9.15;;;;;;;;;;5073390;28;20389;-61
2023/10/14 03:17:21;;;;;;;10.07;9.60;;;;;;;;;;5068027;28;20107;-60
2023/10/14 03:19:49;;;;;;;9.60;9.20;;;;;;;;;;5068377;28;20020;-61
2023/10/14 03:22:16;;;;;;;9.95;9.50;;;;;;;;;;5077295;28;20099;-62
2023/10/14 03:24:43;;;;;;;9.80;9.40;;;;;;;;;;5070876;28;20023;-60
2023/10/14 03:27:08;;;;;;;9.48;9.07;;;;;;;;;;5065893;28;20057;-62
2023/10/14 03:29:34;;;;;;;9.95;9.55;;;;;;;;;;5063302;28;20044;-63
2023/10/14 03:32:00;;;;;;;10.20;9.70;;;;;;;;;;5068947;28;20111;-61
2023/10/14 03:34:30;;;;;;;10.20;9.70;;;;;;;;;;5069320;28;20444;-61
2023/10/14 03:37:00;;;;;;;9.80;9.40;;;;;;;;;;5072655;28;20519;-61
2023/10/14 03:39:40;;;;;;;9.60;9.20;;;;;;;;;;5065193;28;20397;-60
2023/10/14 03:42:10;;;;;;;9.63;9.23;;;;;;;;;;5069389;28;20036;-61
2023/10/14 03:44:37;;;;;;;10.20;9.70;;;;;;;;;;5072264;28;20024;-62
2023/10/14 03:47:03;;;;;;;10.25;9.75;;;;;;;;;;5069821;28;20103;-62
2023/10/14 03:49:32;;;;;;;9.93;9.52;;;;;;;;;;5071628;28;20020;-61
2023/10/14 03:51:57;;;;;;;9.80;9.40;;;;;;;;;;5064334;28;20040;-62
2023/10/14 03:54:28;;;;;;;9.70;9.30;;;;;;;;;;5066269;28;20032;-60
2023/10/14 03:56:57;;;;;;;10.45;9.95;;;;;;;;;;5068017;28;20052;-61
2023/10/14 03:59:23;;;;;;;9.70;9.30;;;;;;;;;;5079927;28;20024;-61
2023/10/14 04:01:54;;;;;;;9.75;9.35;;;;;;;;;;5072053;28;20051;-62
2023/10/14 04:04:21;;;;;;;9.80;9.40;;;;;;;;;;5071741;28;20054;-61
2023/10/14 04:09:44;;;;;;;10.40;9.90;;;;;;;;;;5060441;28;20031;-62
2023/10/14 04:12:28;;;;;;;9.80;9.40;;;;;;;;;;5068087;28;20112;-61
2023/10/14 04:14:54;;;;;;;9.90;9.50;;;;;;;;;;5066236;28;20024;-62
2023/10/14 04:17:20;;;;;;;10.27;9.77;;;;;;;;;;5064579;28;20333;-61
2023/10/14 04:20:29;;;;;;;10.07;9.60;;;;;;;;;;5071717;28;20023;-63
2023/10/14 04:28:17;;;;;;;10.20;9.70;;;;;;;;;;5056523;28;20375;-61
2023/10/14 04:30:32;;;;;;;9.90;9.50;;;;;;;;;;5066427;28;20033;-61
2023/10/14 04:35:33;;;;;;;10.10;9.60;;;;;;;;;;5069250;28;20026;-61
2023/10/14 04:38:02;;;;;;;11.10;10.60;;;;;;;;;;5063202;28;20370;-61
2023/10/14 04:45:51;;;;;;;10.32;9.82;;;;;;;;;;5070069;28;20552;-61
2023/10/14 04:48:16;;;;;;;9.63;9.23;;;;;;;;;;5069011;28;20021;-62
2023/10/14 04:50:42;;;;;;;9.80;9.40;;;;;;;;;;5070324;28;20547;-61
2023/10/14 04:53:13;;;;;;;9.73;9.32;;;;;;;;;;5061731;28;20145;-61
2023/10/14 04:55:43;;;;;;;10.05;9.63;;;;;;;;;;5060684;28;20025;-61
2023/10/14 04:58:12;;;;;;;10.35;9.85;;;;;;;;;;5069188;28;20027;-61
2023/10/14 05:00:45;;;;;;;10.00;9.60;;;;;;;;;;5070184;28;20032;-62
2023/10/14 05:03:12;;;;;;;9.82;9.43;;;;;;;;;;5060830;28;20124;-61
2023/10/14 05:05:38;;;;;;;10.40;9.90;;;;;;;;;;5068732;28;20093;-62
2023/10/14 05:08:04;;;;;;;10.63;10.13;;;;;;;;;;5069464;28;20089;-62
2023/10/14 05:10:30;;;;;;;10.55;10.05;;;;;;;;;;5070375;28;20028;-63
2023/10/14 05:12:56;;;;;;;10.38;9.90;;;;;;;;;;5069049;28;20063;-61
2023/10/14 05:15:21;;;;;;;10.88;10.38;;;;;;;;;;5070993;28;20021;-61
2023/10/14 05:17:50;;;;;;;10.90;10.40;;;;;;;;;;5067801;28;20025;-61
2023/10/14 05:20:54;;;;;;;11.00;10.50;;;;;;;;;;5073370;28;20021;-62
2023/10/14 05:23:05;;;;;;;11.07;10.57;;;;;;;;;;5065041;28;20366;-61
2023/10/14 05:25:30;;;;;;;10.93;10.43;;;;;;;;;;5068110;28;20480;-61
2023/10/14 05:27:56;;;;;;;10.88;10.38;;;;;;;;;;5063590;28;20087;-62
2023/10/14 05:30:22;;;;;;;11.10;10.60;;;;;;;;;;5070637;28;20016;-62
2023/10/14 05:32:48;;;;;;;11.30;10.80;;;;;;;;;;5074341;28;20031;-62
2023/10/14 05:35:13;;;;;;;11.48;10.98;;;;;;;;;;5072858;28;20099;-61
2023/10/14 05:37:41;;;;;;;11.60;11.10;;;;;;;;;;5073904;28;20119;-62
2023/10/14 05:40:13;;;;;;;11.25;10.75;;;;;;;;;;5080509;28;20027;-61
2023/10/14 05:42:39;;;;;;;11.30;10.80;;;;;;;;;;5077226;28;20410;-62
2023/10/14 05:45:05;;;;;;;11.27;10.77;;;;;;;;;;5071830;28;20009;-61
2023/10/14 05:47:32;;;;;;;11.40;10.90;;;;;;;;;;5073444;28;20024;-62
2023/10/14 05:49:57;;;;;;;11.30;10.80;;;;;;;;;;5069008;28;20021;-63
2023/10/14 05:52:24;;;;;;;11.25;10.75;;;;;;;;;;5071757;28;20036;-62
2023/10/14 05:54:50;;;;;;;11.32;10.82;;;;;;;;;;5069799;28;20729;-62
2023/10/14 05:57:17;;;;;;;11.70;11.20;;;;;;;;;;5074546;28;20020;-61
2023/10/14 05:59:43;;;;;;;11.50;11.00;;;;;;;;;;5073649;28;20024;-62
2023/10/14 06:02:12;;;;;;;11.13;10.63;;;;;;;;;;5075642;28;20122;-62
2023/10/14 06:04:41;;;;;;;11.48;10.98;;;;;;;;;;5074220;28;20103;-62
2023/10/14 06:07:14;;;;;;;11.73;11.23;;;;;;;;;;5059695;28;20016;-61
2023/10/14 06:09:45;;;;;;;11.68;11.18;;;;;;;;;;5065537;28;20070;-62
2023/10/14 06:12:13;;;;;;;11.43;10.93;;;;;;;;;;5074269;28;20405;-61
2023/10/14 06:14:39;;;;;;;11.65;11.15;;;;;;;;;;5068112;28;20385;-62
2023/10/14 06:17:05;;;;;;;11.77;11.27;;;;;;;;;;5078703;28;20024;-62
2023/10/14 06:19:34;;;;;;;11.73;11.23;;;;;;;;;;5073322;28;20108;-62
2023/10/14 06:21:59;;;;;;;11.70;11.20;;;;;;;;;;5073478;28;20496;-62
2023/10/14 06:24:25;;;;;;;11.55;11.05;;;;;;;;;;5074243;28;20032;-61
2023/10/14 06:27:07;;;;;;;11.55;11.05;;;;;;;;;;5072139;28;20031;-62
2023/10/14 06:29:32;;;;;;;11.73;11.23;;;;;;;;;;5070196;28;20128;-61
2023/10/14 06:32:01;;;;;;;11.65;11.15;;;;;;;;;;5072799;28;20092;-62
2023/10/14 06:34:27;;;;;;;11.60;11.10;;;;;;;;;;5073370;28;20031;-62
2023/10/14 06:36:53;;;;;;;11.77;11.27;;;;;;;;;;5063985;28;20048;-61
2023/10/14 06:39:26;;;;;;;11.73;11.23;;;;;;;;;;5073026;28;20089;-61
2023/10/14 06:41:52;;;;;;;11.70;11.20;;;;;;;;;;5069752;28;20104;-60
2023/10/14 06:44:20;;;;;;;11.95;11.45;;;;;;;;;;5072110;28;20485;-61
2023/10/14 06:46:45;;;;;;;11.70;11.20;;;;;;;;;;5069999;28;20103;-62
2023/10/14 06:49:13;;;;;;;11.88;11.38;;;;;;;;;;5072810;28;20111;-62
2023/10/14 06:51:42;;;;;;;11.95;11.45;;;;;;;;;;5072947;28;20043;-62
2023/10/14 06:54:09;;;;;;;11.80;11.30;;;;;;;;;;5072551;28;20119;-62
2023/10/14 06:56:35;;;;;;;11.75;11.25;;;;;;;;;;5071521;28;20424;-62
2023/10/14 06:59:00;;;;;;;11.80;11.30;;;;;;;;;;5067075;28;20024;-62
2023/10/14 07:01:28;;;;;;;12.07;11.57;;;;;;;;;;5080502;28;20073;-62
2023/10/14 07:03:54;;;;;;;12.13;11.63;;;;;;;;;;5072970;28;20257;-62
2023/10/14 07:06:20;;;;;;;11.98;11.48;;;;;;;;;;5064909;28;20016;-62
2023/10/14 07:08:48;;;;;;;12.13;11.63;;;;;;;;;;5061438;28;20024;-63
2023/10/14 07:11:15;;;;;;;11.95;11.45;;;;;;;;;;5070879;28;20023;-62
2023/10/14 07:13:42;;;;;;;12.00;11.50;;;;;;;;;;5072784;28;20072;-62
2023/10/14 07:16:08;;;;;;;11.80;11.30;;;;;;;;;;5065230;28;20508;-62
2023/10/14 07:18:36;;;;;;;11.82;11.32;;;;;;;;;;5071077;28;20024;-62
2023/10/14 07:21:02;;;;;;;12.00;11.50;;;;;;;;;;5069886;28;20021;-63
2023/10/14 07:23:29;;;;;;;11.95;11.45;;;;;;;;;;5070123;28;20025;-62
2023/10/14 07:25:54;;;;;;;11.98;11.48;;;;;;;;;;5060941;28;20025;-62
2023/10/14 07:28:19;;;;;;;11.80;11.30;;;;;;;;;;5070244;28;20027;-62
2023/10/14 07:30:51;;;;;;;11.85;11.35;;;;;;;;;;5074827;28;20252;-63
2023/10/14 07:33:19;;;;;;;11.88;11.38;;;;;;;;;;5065755;28;20016;-62
2023/10/14 07:35:46;;;;;;;11.90;11.40;;;;;;;;;;5072637;28;20021;-62
2023/10/14 07:38:11;;;;;;;11.70;11.20;;;;;;;;;;5072109;28;20482;-63
2023/10/14 07:40:37;;;;;;;11.65;11.15;;;;;;;;;;5063685;28;20053;-62
2023/10/14 07:43:07;;;;;;;12.10;11.60;;;;;;;;;;5070373;28;20016;-62
2023/10/14 07:45:35;;;;;;;11.77;11.27;;;;;;;;;;5073588;28;20028;-61
2023/10/14 07:48:09;;;;;;;12.07;11.57;;;;;;;;;;5071633;28;20103;-63
2023/10/14 07:50:42;;;;;;;11.95;11.45;;;;;;;;;;5070960;28;20024;-62
2023/10/14 07:53:08;;;;;;;11.65;11.15;;;;;;;;;;5071996;28;20094;-62
2023/10/14 07:55:43;;;;;;;11.95;11.45;;;;;;;;;;5070622;28;20017;-65
2023/10/14 07:58:10;;;;;;;11.68;11.18;;;;;;;;;;5071047;28;20024;-62
2023/10/14 08:00:38;;;;;;;11.48;10.98;;;;;;;;;;5071063;28;20107;-63
2023/10/14 08:03:06;;;;;;;11.60;11.10;;;;;;;;;;5071137;28;20029;-63
2023/10/14 08:05:33;;;;;;;11.65;11.15;;;;;;;;;;5067113;28;20025;-63
2023/10/14 08:08:05;;;;;;;11.70;11.20;;;;;;;;;;5063528;28;20025;-63
2023/10/14 08:10:31;;;;;;;11.55;11.05;;;;;;;;;;5068046;28;20087;-62
2023/10/14 08:12:57;;;;;;;11.80;11.30;;;;;;;;;;5062102;28;20045;-62
2023/10/14 08:15:22;;;;;;;11.80;11.30;;;;;;;;;;5071835;28;20020;-62
2023/10/14 08:17:51;;;;;;;11.82;11.32;;;;;;;;;;5071415;28;20028;-62
2023/10/14 08:20:19;;;;;;;11.82;11.32;;;;;;;;;;5071077;28;20052;-62
2023/10/14 08:22:45;;;;;;;11.77;11.27;;;;;;;;;;5070435;28;20021;-61
2023/10/14 08:25:15;;;;;;;11.70;11.20;;;;;;;;;;5067672;28;20078;-63
2023/10/14 08:27:40;;;;;;;11.65;11.15;;;;;;;;;;5056833;28;20059;-63
2023/10/14 08:30:10;;;;;;;12.00;11.50;;;;;;;;;;5066989;28;20477;-62
2023/10/14 08:32:37;;;;;;;11.68;11.18;;;;;;;;;;5059149;28;20254;-62
2023/10/14 08:35:08;;;;;;;11.63;11.13;;;;;;;;;;5070813;28;20490;-62
2023/10/14 08:37:34;;;;;;;11.80;11.30;;;;;;;;;;5070233;28;20024;-61
2023/10/14 08:40:00;;;;;;;11.80;11.30;;;;;;;;;;5060711;28;20032;-62
2023/10/14 08:42:26;;;;;;;11.60;11.10;;;;;;;;;;5070408;28;20024;-62
2023/10/14 08:44:52;;;;;;;11.73;11.23;;;;;;;;;;5070946;28;20388;-62
2023/10/14 08:47:18;;;;;;;11.60;11.10;;;;;;;;;;5065039;28;20048;-63
2023/10/14 08:49:44;;;;;;;11.55;11.05;;;;;;;;;;5071600;28;20105;-63
2023/10/14 08:52:15;;;;;;;11.70;11.20;;;;;;;;;;5066170;28;20024;-62
2023/10/14 08:54:42;;;;;;;11.85;11.35;;;;;;;;;;5081019;28;20009;-62
2023/10/14 08:57:07;;;;;;;11.68;11.18;;;;;;;;;;5065533;28;20047;-61
2023/10/14 08:59:32;;;;;;;11.47;10.97;;;;;;;;;;5072058;28;20063;-62
2023/10/14 09:01:58;;;;;;;11.55;11.05;;;;;;;;;;5060523;28;20602;-62
2023/10/14 09:04:27;;;;;;;11.80;11.30;;;;;;;;;;5067194;28;20029;-62
2023/10/14 09:06:52;;;;;;;11.57;11.07;;;;;;;;;;5067085;28;20514;-62
2023/10/14 09:09:23;;;;;;;11.70;11.20;;;;;;;;;;5069411;28;20099;-61
2023/10/14 09:11:48;;;;;;;11.57;11.07;;;;;;;;;;5067306;28;20031;-62
2023/10/14 09:14:14;;;;;;;11.77;11.27;;;;;;;;;;5062962;28;20041;-61
2023/10/14 09:16:41;;;;;;;11.90;11.40;;;;;;;;;;5071285;28;20029;-62
2023/10/14 09:19:07;;;;;;;11.73;11.23;;;;;;;;;;5059604;28;20063;-61
2023/10/14 09:21:42;;;;;;;11.38;10.88;;;;;;;;;;5065807;28;20370;-63
2023/10/14 09:24:08;;;;;;;11.48;10.98;;;;;;;;;;5070462;28;20017;-63
2023/10/14 09:26:43;;;;;;;11.32;10.82;;;;;;;;;;5069087;28;20021;-63
2023/10/14 09:29:09;;;;;;;11.65;11.15;;;;;;;;;;5070721;28;20037;-61
2023/10/14 09:31:38;;;;;;;11.63;11.13;;;;;;;;;;5067466;28;20033;-61
2023/10/14 09:34:03;;;;;;;11.60;11.10;;;;;;;;;;5068855;28;20028;-62
2023/10/14 09:36:33;;;;;;;11.75;11.25;;;;;;;;;;5070298;28;20029;-61
2023/10/14 09:39:00;;;;;;;11.90;11.40;;;;;;;;;;5068592;28;20028;-61
2023/10/14 09:41:28;;;;;;;11.77;11.27;;;;;;;;;;5071901;28;20024;-61
2023/10/14 09:43:54;;;;;;;11.50;11.00;;;;;;;;;;5071649;28;20020;-61
2023/10/14 09:46:20;;;;;;;11.60;11.10;;;;;;;;;;5068064;28;20039;-61
2023/10/14 09:48:45;;;;;;;11.63;11.13;;;;;;;;;;5064951;28;20075;-62
2023/10/14 09:51:12;;;;;;;11.75;11.25;;;;;;;;;;5070564;28;20021;-62
2023/10/14 09:53:38;;;;;;;11.60;11.10;;;;;;;;;;5057282;28;20470;-62
2023/10/14 09:56:06;;;;;;;11.30;10.80;;;;;;;;;;5070236;28;20058;-63
2023/10/14 09:58:34;;;;;;;11.52;11.02;;;;;;;;;;5080273;28;20012;-61
2023/10/14 10:01:00;;;;;;;11.43;10.93;;;;;;;;;;5070302;28;20031;-62
2023/10/14 10:03:26;;;;;;;11.48;10.98;;;;;;;;;;5059831;28;20049;-62
2023/10/14 10:06:10;;;;;;;11.50;11.00;;;;;;;;;;5060246;28;20079;-62
2023/10/14 10:08:38;;;;;;;11.40;10.90;;;;;;;;;;5071585;28;20028;-62
2023/10/14 10:11:04;;;;;;;11.25;10.75;;;;;;;;;;5070903;28;20256;-62
2023/10/14 10:13:29;;;;;;;11.43;10.93;;;;;;;;;;5065913;28;20049;-62
2023/10/14 10:16:02;;;;;;;11.73;11.23;;;;;;;;;;5068078;28;20016;-62
2023/10/14 10:18:48;;;;;;;11.25;10.75;;;;;;;;;;5062964;28;20037;-62
2023/10/14 10:21:13;;;;;;;11.32;10.82;;;;;;;;;;5076149;28;20020;-62
2023/10/14 10:23:38;;;;;;;11.57;11.07;;;;;;;;;;5072108;28;20028;-61
2023/10/14 10:26:03;;;;;;;11.38;10.88;;;;;;;;;;5072851;28;20031;-61
2023/10/14 10:28:29;;;;;;;11.38;10.88;;;;;;;;;;5070878;28;20085;-61
2023/10/14 10:30:55;;;;;;;11.48;10.98;;;;;;;;;;5071558;28;20031;-63
2023/10/14 10:33:22;;;;;;;11.10;10.60;;;;;;;;;;5073228;28;20423;-62
2023/10/14 10:36:03;;;;;;;11.45;10.95;;;;;;;;;;5070603;28;20028;-62
2023/10/14 10:38:29;;;;;;;11.20;10.70;;;;;;;;;;5062180;28;20048;-62
2023/10/14 10:41:30;;;;;;;11.30;10.80;;;;;;;;;;5072455;28;20455;-62
2023/10/14 10:44:02;;;;;;;11.48;10.98;;;;;;;;;;5028453;28;20025;-62
2023/10/14 10:46:48;;;;;;;11.98;11.48;;;;;;;;;;5072536;28;20675;-61
2023/10/14 10:49:14;;;;;;;11.73;11.23;;;;;;;;;;5060139;28;20055;-62
2023/10/14 10:51:48;;;;;;;11.50;11.00;;;;;;;;;;5067111;28;20066;-61
2023/10/14 10:54:15;;;;;;;11.75;11.25;;;;;;;;;;5072126;28;20473;-62
2023/10/14 10:56:41;;;;;;;11.90;11.40;;;;;;;;;;5060238;28;20040;-62
2023/10/14 10:59:06;;;;;;;11.45;10.95;;;;;;;;;;5074282;28;20385;-62
2023/10/14 11:01:32;;;;;;;12.00;11.50;;;;;;;;;;5071417;28;20024;-61
2023/10/14 11:03:58;;;;;;;11.43;10.93;;;;;;;;;;5068129;28;20074;-61
2023/10/14 11:06:25;;;;;;;11.93;11.43;;;;;;;;;;5062554;28;20031;-63
2023/10/14 11:08:51;;;;;;;11.40;10.90;;;;;;;;;;5078284;28;20032;-62
2023/10/14 11:11:17;;;;;;;11.57;11.07;;;;;;;;;;5070359;28;20012;-62
2023/10/14 11:13:42;;;;;;;11.55;11.05;;;;;;;;;;5072886;28;20078;-62
2023/10/14 11:16:14;;;;;;;11.40;10.90;;;;;;;;;;5069726;28;20032;-62
2023/10/14 11:18:49;;;;;;;11.57;11.07;;;;;;;;;;5078400;28;20021;-61
2023/10/14 11:21:14;;;;;;;11.70;11.20;;;;;;;;;;5070433;28;20078;-62
2023/10/14 11:23:41;;;;;;;11.52;11.02;;;;;;;;;;5073138;28;20622;-62
2023/10/14 11:26:15;;;;;;;11.30;10.80;;;;;;;;;;5069548;28;20017;-62
2023/10/14 11:28:45;;;;;;;11.57;11.07;;;;;;;;;;5071729;28;20025;-63
2023/10/14 11:31:14;;;;;;;11.60;11.10;;;;;;;;;;5064367;28;20512;-61
2023/10/14 11:33:39;;;;;;;11.25;10.75;;;;;;;;;;5073154;28;20378;-61
2023/10/14 11:36:05;;;;;;;11.43;10.93;;;;;;;;;;5072123;28;20023;-62
2023/10/14 11:38:31;;;;;;;11.52;11.02;;;;;;;;;;5070578;28;20033;-61
2023/10/14 11:41:02;;;;;;;11.60;11.10;;;;;;;;;;5074702;28;20016;-61
2023/10/14 11:43:27;;;;;;;11.25;10.75;;;;;;;;;;5082887;28;20377;-61
2023/10/14 11:45:55;;;;;;;11.20;10.70;;;;;;;;;;5068046;28;20026;-61
2023/10/14 11:48:22;;;;;;;11.20;10.70;;;;;;;;;;5073870;28;20020;-63
2023/10/14 11:50:47;;;;;;;11.40;10.90;;;;;;;;;;5069946;28;20017;-62
2023/10/14 11:53:13;;;;;;;11.80;11.30;;;;;;;;;;5069747;28;20027;-61
2023/10/14 11:55:39;;;;;;;11.40;10.90;;;;;;;;;;5075022;28;20024;-61
2023/10/14 11:58:04;;;;;;;11.40;10.90;;;;;;;;;;5080719;28;20099;-62
2023/10/14 12:00:30;;;;;;;11.60;11.10;;;;;;;;;;5071251;28;20028;-62
2023/10/14 12:02:56;;;;;;;11.07;10.57;;;;;;;;;;5076925;28;20017;-61
2023/10/14 12:05:21;;;;;;;11.23;10.73;;;;;;;;;;5065261;28;20024;-62
2023/10/14 12:07:47;;;;;;;11.25;10.75;;;;;;;;;;5068900;28;20133;-61
2023/10/14 12:10:12;;;;;;;10.95;10.45;;;;;;;;;;5071057;28;20085;-62
2023/10/14 12:12:38;;;;;;;11.18;10.68;;;;;;;;;;5067696;28;20487;-62
2023/10/14 12:15:05;;;;;;;11.05;10.55;;;;;;;;;;5078951;28;20031;-60
2023/10/14 12:17:34;;;;;;;11.40;10.90;;;;;;;;;;5071015;28;20170;-62
2023/10/14 12:20:04;;;;;;;11.10;10.60;;;;;;;;;;5071364;28;20035;-61
2023/10/14 12:22:30;;;;;;;10.80;10.30;;;;;;;;;;5069057;28;20025;-61
2023/10/14 12:24:55;;;;;;;11.20;10.70;;;;;;;;;;5077517;28;20033;-61
2023/10/14 12:27:25;;;;;;;11.13;10.63;;;;;;;;;;5063732;28;20506;-62
2023/10/14 12:29:51;;;;;;;11.50;11.00;;;;;;;;;;5068923;28;20543;-62
2023/10/14 12:32:17;;;;;;;11.20;10.70;;;;;;;;;;5071502;28;20021;-61
2023/10/14 12:34:43;;;;;;;11.35;10.85;;;;;;;;;;5073226;28;20012;-63
2023/10/14 12:37:30;;;;;;;10.80;10.30;;;;;;;;;;5070421;28;20078;-61
2023/10/14 12:40:04;;;;;;;11.18;10.68;;;;;;;;;;5062387;28;20035;-62
2023/10/14 12:42:45;;;;;;;11.20;10.70;;;;;;;;;;5068013;28;20029;-62
2023/10/14 12:45:13;;;;;;;11.07;10.57;;;;;;;;;;5068793;28;20021;-62
2023/10/14 12:47:44;;;;;;;11.07;10.57;;;;;;;;;;5071590;28;20020;-62
2023/10/14 12:50:10;;;;;;;11.40;10.90;;;;;;;;;;5060462;28;20065;-62
2023/10/14 12:52:38;;;;;;;11.25;10.75;;;;;;;;;;5065410;28;20016;-61
2023/10/14 12:55:13;;;;;;;11.23;10.73;;;;;;;;;;5065525;28;20020;-62
2023/10/14 12:57:39;;;;;;;11.25;10.75;;;;;;;;;;5069746;28;20055;-63
2023/10/14 13:00:10;;;;;;;11.32;10.82;;;;;;;;;;5068409;28;20020;-63
2023/10/14 13:02:39;;;;;;;11.65;11.15;;;;;;;;;;5058801;28;20028;-62
2023/10/14 13:05:05;;;;;;;11.60;11.10;;;;;;;;;;5067841;28;20028;-63
2023/10/14 13:07:30;;;;;;;11.40;10.90;;;;;;;;;;5069524;28;20024;-62
2023/10/14 13:09:55;;;;;;;11.25;10.75;;;;;;;;;;5063347;28;20024;-61
2023/10/14 13:12:21;;;;;;;11.40;10.90;;;;;;;;;;5065821;28;20047;-63
2023/10/14 13:14:48;;;;;;;11.30;10.80;;;;;;;;;;5067946;28;20024;-62
2023/10/14 13:17:13;;;;;;;11.20;10.70;;;;;;;;;;5066877;28;20116;-62
2023/10/14 13:19:40;;;;;;;11.15;10.65;;;;;;;;;;5062889;28;20099;-62
2023/10/14 13:22:17;;;;;;;11.50;11.00;;;;;;;;;;5066019;28;20503;-62
2023/10/14 13:24:49;;;;;;;11.70;11.20;;;;;;;;;;5060724;28;20029;-62
2023/10/14 13:27:15;;;;;;;10.95;10.45;;;;;;;;;;5066704;28;20031;-62
2023/10/14 13:29:41;;;;;;;11.52;11.02;;;;;;;;;;5064507;28;20397;-62
2023/10/14 13:32:06;;;;;;;10.90;10.40;;;;;;;;;;5068174;28;20027;-62
2023/10/14 13:34:34;;;;;;;11.63;11.13;;;;;;;;;;5057597;28;20009;-61
2023/10/14 13:37:01;;;;;;;11.13;10.63;;;;;;;;;;5055060;28;20438;-61
2023/10/14 13:39:34;;;;;;;11.18;10.68;;;;;;;;;;5067286;28;20034;-63
2023/10/14 13:41:59;;;;;;;11.32;10.82;;;;;;;;;;5072496;28;20554;-62
2023/10/14 13:44:25;;;;;;;11.43;10.93;;;;;;;;;;5074477;28;20029;-63
2023/10/14 13:46:51;;;;;;;11.02;10.52;;;;;;;;;;5069695;28;20477;-61
2023/10/14 13:49:23;;;;;;;11.35;10.85;;;;;;;;;;5074226;28;20050;-62
2023/10/14 13:51:52;;;;;;;11.40;10.90;;;;;;;;;;5065363;28;20028;-62
2023/10/14 13:54:17;;;;;;;11.40;10.90;;;;;;;;;;5072609;28;20016;-62
2023/10/14 13:56:43;;;;;;;11.20;10.70;;;;;;;;;;5067673;28;20506;-63
2023/10/14 13:59:08;;;;;;;10.90;10.40;;;;;;;;;;5072587;28;20016;-60
2023/10/14 14:01:34;;;;;;;11.23;10.73;;;;;;;;;;5070732;28;20570;-62
2023/10/14 14:04:01;;;;;;;11.30;10.80;;;;;;;;;;5077203;28;20107;-62
2023/10/14 14:06:26;;;;;;;11.05;10.55;;;;;;;;;;5075466;28;20035;-62
2023/10/14 14:08:55;;;;;;;11.10;10.60;;;;;;;;;;5070943;28;20020;-62
2023/10/14 14:11:20;;;;;;;11.02;10.52;;;;;;;;;;5066048;28;20028;-62
2023/10/14 14:13:46;;;;;;;11.20;10.70;;;;;;;;;;5069796;28;20041;-61
2023/10/14 14:16:11;;;;;;;11.38;10.88;;;;;;;;;;5062385;28;20051;-61
2023/10/14 14:18:37;;;;;;;11.23;10.73;;;;;;;;;;5074031;28;20476;-61
2023/10/14 14:21:02;;;;;;;11.45;10.95;;;;;;;;;;5063855;28;20504;-62
2023/10/14 14:23:27;;;;;;;11.30;10.80;;;;;;;;;;5076679;28;20622;-61
2023/10/14 14:25:53;;;;;;;11.60;11.10;;;;;;;;;;5073182;28;20023;-61
2023/10/14 14:28:22;;;;;;;11.75;11.25;;;;;;;;;;5072637;28;20077;-61
2023/10/14 14:30:49;;;;;;;11.30;10.80;;;;;;;;;;5072221;28;20013;-62
2023/10/14 14:33:14;;;;;;;11.30;10.80;;;;;;;;;;5072499;28;20451;-62
2023/10/14 14:35:41;;;;;;;11.43;10.93;;;;;;;;;;5069803;28;20013;-61
2023/10/14 14:38:08;;;;;;;11.52;11.02;;;;;;;;;;5071319;28;20091;-61
2023/10/14 14:40:34;;;;;;;11.68;11.18;;;;;;;;;;5071550;28;20030;-61
2023/10/14 14:43:00;;;;;;;11.23;10.73;;;;;;;;;;5073232;28;20393;-61
2023/10/14 14:45:27;;;;;;;11.27;10.77;;;;;;;;;;5070110;28;20020;-62
2023/10/14 14:47:54;;;;;;;11.00;10.50;;;;;;;;;;5070132;28;20024;-61
2023/10/14 14:50:20;;;;;;;11.23;10.73;;;;;;;;;;5072988;28;20021;-62
2023/10/14 14:52:47;;;;;;;11.65;11.15;;;;;;;;;;5068696;28;20009;-62
2023/10/14 14:55:14;;;;;;;11.43;10.93;;;;;;;;;;5076166;28;20012;-63
2023/10/14 14:57:44;;;;;;;11.02;10.52;;;;;;;;;;5075316;28;20024;-62
2023/10/14 15:00:14;;;;;;;11.20;10.70;;;;;;;;;;5072962;28;20046;-64